createdAt,value
2018-04-22T00:00:21.504Z,64.30
2018-04-22T00:00:52.950Z,64.40
2018-04-22T00:01:24.462Z,64.30
2018-04-22T00:01:55.938Z,64.30
2018-04-22T00:02:27.449Z,65.00
2018-04-22T00:02:58.923Z,64.40
2018-04-22T00:03:30.348Z,64.40
2018-04-22T00:04:01.814Z,64.30
2018-04-22T00:04:33.255Z,64.30
2018-04-22T00:05:04.691Z,64.30
2018-04-22T00:05:36.161Z,64.30
2018-04-22T00:06:07.605Z,64.20
2018-04-22T00:06:39.052Z,64.20
2018-04-22T00:07:10.475Z,64.20
2018-04-22T00:07:41.962Z,64.20
2018-04-22T00:08:14.148Z,64.20
2018-04-22T00:08:45.617Z,64.10
2018-04-22T00:09:17.061Z,64.20
2018-04-22T00:09:48.532Z,64.20
2018-04-22T00:10:20.742Z,64.20
2018-04-22T00:10:52.187Z,64.20
2018-04-22T00:11:23.640Z,64.20
2018-04-22T00:11:55.103Z,64.20
2018-04-22T00:12:26.525Z,64.30
2018-04-22T00:12:57.990Z,64.30
2018-04-22T00:13:30.921Z,64.20
2018-04-22T00:14:02.347Z,64.30
2018-04-22T00:14:33.798Z,64.20
2018-04-22T00:15:05.255Z,64.20
2018-04-22T00:15:36.721Z,64.20
2018-04-22T00:16:08.147Z,64.20
2018-04-22T00:16:39.581Z,64.30
2018-04-22T00:17:11.016Z,64.30
2018-04-22T00:17:42.453Z,64.40
2018-04-22T00:18:14.661Z,64.60
2018-04-22T00:18:46.126Z,64.50
2018-04-22T00:19:17.561Z,64.50
2018-04-22T00:19:49.045Z,64.40
2018-04-22T00:20:21.210Z,64.30
2018-04-22T00:20:52.632Z,64.20
2018-04-22T00:21:24.081Z,64.20
2018-04-22T00:21:56.261Z,64.30
2018-04-22T00:22:27.706Z,64.30
2018-04-22T00:22:59.143Z,64.50
2018-04-22T00:23:30.624Z,64.50
2018-04-22T00:24:02.050Z,64.60
2018-04-22T00:24:33.476Z,64.60
2018-04-22T00:25:04.937Z,64.70
2018-04-22T00:25:36.376Z,64.70
2018-04-22T00:26:07.820Z,64.70
2018-04-22T00:26:39.254Z,64.60
2018-04-22T00:27:10.721Z,64.70
2018-04-22T00:27:42.160Z,64.80
2018-04-22T00:28:13.596Z,64.70
2018-04-22T00:28:45.067Z,64.60
2018-04-22T00:29:16.501Z,64.60
2018-04-22T00:29:47.941Z,64.60
2018-04-22T00:30:19.364Z,64.60
2018-04-22T00:30:50.796Z,64.60
2018-04-22T00:31:22.249Z,64.60
2018-04-22T00:31:53.689Z,64.60
2018-04-22T00:32:25.124Z,64.50
2018-04-22T00:32:56.566Z,64.40
2018-04-22T00:33:28.576Z,64.40
2018-04-22T00:34:00.800Z,64.30
2018-04-22T00:34:32.268Z,64.20
2018-04-22T00:35:03.708Z,64.30
2018-04-22T00:35:35.129Z,64.20
2018-04-22T00:36:06.553Z,64.10
2018-04-22T00:36:37.976Z,64.20
2018-04-22T00:37:09.397Z,64.30
2018-04-22T00:37:41.596Z,64.30
2018-04-22T00:38:13.023Z,64.30
2018-04-22T00:38:44.443Z,64.20
2018-04-22T00:39:16.635Z,64.30
2018-04-22T00:39:48.109Z,64.30
2018-04-22T00:40:19.566Z,64.30
2018-04-22T00:40:51.738Z,64.20
2018-04-22T00:41:23.908Z,64.10
2018-04-22T00:41:55.344Z,64.10
2018-04-22T00:42:26.825Z,64.10
2018-04-22T00:42:58.263Z,64.10
2018-04-22T00:43:29.728Z,64.10
2018-04-22T00:44:01.159Z,64.10
2018-04-22T00:44:34.161Z,64.30
2018-04-22T00:45:05.598Z,64.70
2018-04-22T00:45:37.028Z,64.30
2018-04-22T00:46:08.471Z,64.30
2018-04-22T00:46:39.936Z,64.10
2018-04-22T00:47:11.364Z,64.00
2018-04-22T00:47:42.810Z,64.10
2018-04-22T00:48:15.014Z,64.10
2018-04-22T00:48:46.444Z,64.10
2018-04-22T00:49:18.658Z,64.20
2018-04-22T00:49:50.131Z,64.20
2018-04-22T00:50:22.315Z,64.10
2018-04-22T00:50:54.514Z,64.10
2018-04-22T00:51:25.959Z,64.10
2018-04-22T00:51:57.406Z,64.30
2018-04-22T00:52:28.920Z,64.30
2018-04-22T00:53:00.365Z,64.40
2018-04-22T00:54:39.584Z,64.30
2018-04-22T00:55:11.789Z,64.60
2018-04-22T00:55:43.225Z,64.60
2018-04-22T00:56:14.677Z,64.70
2018-04-22T00:56:46.157Z,64.70
2018-04-22T00:57:18.341Z,65.20
2018-04-22T00:57:49.780Z,64.60
2018-04-22T00:58:21.203Z,64.50
2018-04-22T00:58:53.373Z,65.00
2018-04-22T00:59:24.831Z,64.30
2018-04-22T00:59:56.268Z,64.90
2018-04-22T01:00:28.045Z,64.30
2018-04-22T01:00:59.494Z,64.20
2018-04-22T01:01:30.926Z,64.20
2018-04-22T01:02:02.410Z,64.20
2018-04-22T01:02:34.615Z,64.30
2018-04-22T01:03:06.039Z,64.30
2018-04-22T01:03:37.490Z,64.30
2018-04-22T01:04:08.936Z,64.40
2018-04-22T01:04:40.363Z,64.40
2018-04-22T01:05:12.536Z,64.70
2018-04-22T01:05:44.037Z,64.70
2018-04-22T01:06:16.245Z,64.60
2018-04-22T01:06:47.671Z,64.60
2018-04-22T01:07:19.100Z,64.40
2018-04-22T01:07:51.267Z,64.10
2018-04-22T01:08:23.435Z,63.90
2018-04-22T01:08:54.901Z,63.90
2018-04-22T01:09:26.349Z,63.90
2018-04-22T01:09:57.809Z,63.80
2018-04-22T01:10:29.256Z,64.00
2018-04-22T01:11:00.727Z,64.00
2018-04-22T01:11:32.916Z,64.20
2018-04-22T01:12:04.436Z,64.10
2018-04-22T01:12:36.615Z,64.30
2018-04-22T01:13:08.040Z,64.40
2018-04-22T01:13:40.229Z,64.50
2018-04-22T01:14:11.693Z,64.50
2018-04-22T01:14:43.135Z,64.50
2018-04-22T01:15:14.564Z,64.50
2018-04-22T01:15:46.025Z,64.60
2018-04-22T01:16:17.509Z,64.70
2018-04-22T01:16:49.688Z,65.30
2018-04-22T01:17:21.131Z,65.30
2018-04-22T01:17:52.552Z,65.50
2018-04-22T01:18:24.711Z,65.60
2018-04-22T01:18:56.474Z,65.60
2018-04-22T01:19:27.923Z,65.40
2018-04-22T01:19:59.387Z,65.20
2018-04-22T01:20:30.854Z,65.10
2018-04-22T01:21:02.322Z,65.00
2018-04-22T01:21:33.830Z,65.00
2018-04-22T01:22:05.269Z,65.00
2018-04-22T01:22:36.692Z,65.10
2018-04-22T01:23:08.119Z,65.30
2018-04-22T01:23:39.584Z,65.40
2018-04-22T01:24:11.016Z,65.40
2018-04-22T01:24:42.452Z,65.50
2018-04-22T01:25:13.901Z,65.60
2018-04-22T01:25:45.381Z,65.60
2018-04-22T01:26:16.841Z,65.60
2018-04-22T01:26:48.318Z,65.60
2018-04-22T01:27:19.743Z,65.70
2018-04-22T01:27:51.921Z,65.70
2018-04-22T01:28:23.339Z,65.70
2018-04-22T01:28:54.797Z,65.80
2018-04-22T01:29:26.246Z,65.90
2018-04-22T01:29:57.697Z,65.80
2018-04-22T01:30:29.155Z,65.50
2018-04-22T01:31:00.615Z,65.50
2018-04-22T01:31:32.057Z,65.50
2018-04-22T01:32:03.898Z,65.40
2018-04-22T01:32:35.324Z,65.50
2018-04-22T01:33:06.790Z,65.50
2018-04-22T01:33:38.251Z,65.50
2018-04-22T01:34:09.681Z,65.50
2018-04-22T01:34:41.120Z,65.30
2018-04-22T01:35:12.556Z,65.20
2018-04-22T01:35:43.997Z,65.10
2018-04-22T01:36:15.455Z,65.20
2018-04-22T01:36:46.912Z,65.20
2018-04-22T01:37:19.149Z,65.30
2018-04-22T01:37:50.637Z,65.30
2018-04-22T01:38:22.816Z,65.80
2018-04-22T01:38:54.266Z,65.30
2018-04-22T01:39:25.751Z,65.40
2018-04-22T01:39:57.180Z,65.40
2018-04-22T01:40:28.635Z,65.50
2018-04-22T01:41:00.073Z,65.60
2018-04-22T01:41:31.523Z,65.50
2018-04-22T01:42:02.970Z,65.60
2018-04-22T01:42:35.213Z,65.70
2018-04-22T01:43:06.677Z,65.60
2018-04-22T01:43:38.108Z,65.70
2018-04-22T01:44:09.543Z,65.70
2018-04-22T01:44:40.995Z,65.80
2018-04-22T01:45:13.202Z,65.90
2018-04-22T01:45:45.360Z,65.90
2018-04-22T01:46:16.821Z,65.90
2018-04-22T01:46:48.246Z,66.00
2018-04-22T01:47:19.707Z,66.00
2018-04-22T01:47:51.159Z,66.00
2018-04-22T01:48:22.579Z,66.00
2018-04-22T01:48:54.021Z,66.00
2018-04-22T01:49:25.461Z,66.10
2018-04-22T01:49:56.910Z,66.10
2018-04-22T01:50:28.343Z,66.10
2018-04-22T01:50:59.775Z,66.20
2018-04-22T01:51:31.939Z,66.20
2018-04-22T01:52:03.381Z,66.20
2018-04-22T01:52:35.695Z,66.20
2018-04-22T01:53:07.152Z,66.20
2018-04-22T01:53:39.348Z,66.20
2018-04-22T01:54:11.518Z,66.20
2018-04-22T01:54:42.950Z,66.20
2018-04-22T01:55:14.385Z,66.20
2018-04-22T01:55:46.561Z,66.30
2018-04-22T01:56:17.987Z,66.30
2018-04-22T01:56:49.432Z,66.20
2018-04-22T01:57:21.609Z,66.20
2018-04-22T01:57:53.040Z,66.20
2018-04-22T01:58:24.512Z,66.10
2018-04-22T01:58:55.947Z,66.00
2018-04-22T01:59:27.380Z,65.90
2018-04-22T01:59:58.833Z,65.80
2018-04-22T02:00:30.281Z,65.70
2018-04-22T02:01:01.721Z,65.60
2018-04-22T02:01:33.184Z,65.60
2018-04-22T02:02:04.632Z,65.60
2018-04-22T02:02:36.827Z,65.60
2018-04-22T02:03:09.044Z,65.60
2018-04-22T02:03:40.893Z,65.60
2018-04-22T02:04:12.330Z,66.30
2018-04-22T02:04:43.757Z,65.70
2018-04-22T02:05:15.197Z,65.80
2018-04-22T02:05:46.656Z,65.90
2018-04-22T02:06:18.158Z,66.00
2018-04-22T02:06:50.328Z,66.10
2018-04-22T02:07:21.769Z,66.10
2018-04-22T02:07:53.200Z,66.10
2018-04-22T02:08:24.664Z,66.10
2018-04-22T02:08:56.180Z,66.20
2018-04-22T02:09:27.683Z,66.30
2018-04-22T02:09:59.121Z,66.30
2018-04-22T02:10:30.561Z,66.30
2018-04-22T02:11:01.995Z,66.40
2018-04-22T02:11:33.438Z,66.30
2018-04-22T02:12:04.873Z,66.40
2018-04-22T02:12:36.333Z,66.40
2018-04-22T02:13:07.781Z,66.50
2018-04-22T02:13:39.203Z,66.50
2018-04-22T02:14:10.681Z,66.50
2018-04-22T02:14:42.113Z,66.60
2018-04-22T02:15:13.541Z,66.60
2018-04-22T02:15:44.967Z,66.60
2018-04-22T02:16:16.453Z,66.50
2018-04-22T02:16:47.887Z,66.50
2018-04-22T02:17:20.787Z,66.40
2018-04-22T02:17:52.238Z,66.40
2018-04-22T02:18:23.675Z,66.40
2018-04-22T02:18:55.113Z,66.30
2018-04-22T02:19:27.317Z,66.40
2018-04-22T02:19:58.755Z,66.40
2018-04-22T02:20:30.191Z,66.30
2018-04-22T02:21:01.633Z,66.20
2018-04-22T02:21:33.083Z,66.10
2018-04-22T02:22:04.543Z,66.00
2018-04-22T02:22:35.977Z,66.00
2018-04-22T02:23:07.420Z,65.90
2018-04-22T02:23:38.858Z,66.00
2018-04-22T02:24:10.286Z,66.00
2018-04-22T02:24:41.760Z,66.00
2018-04-22T02:25:13.201Z,66.10
2018-04-22T02:25:44.636Z,66.20
2018-04-22T02:26:16.069Z,66.20
2018-04-22T02:26:47.499Z,66.20
2018-04-22T02:27:18.920Z,66.30
2018-04-22T02:27:50.341Z,66.40
2018-04-22T02:28:22.513Z,66.50
2018-04-22T02:28:54.693Z,66.50
2018-04-22T02:29:26.119Z,66.40
2018-04-22T02:29:57.577Z,66.60
2018-04-22T02:30:29.001Z,66.60
2018-04-22T02:31:01.163Z,66.40
2018-04-22T02:31:32.601Z,66.40
2018-04-22T02:32:04.766Z,66.40
2018-04-22T02:32:36.221Z,66.40
2018-04-22T02:33:07.673Z,66.40
2018-04-22T02:33:39.118Z,66.50
2018-04-22T02:34:10.581Z,66.50
2018-04-22T02:34:42.788Z,66.60
2018-04-22T02:35:15.014Z,66.50
2018-04-22T02:35:46.445Z,66.60
2018-04-22T02:36:17.880Z,66.60
2018-04-22T02:36:49.319Z,66.60
2018-04-22T02:37:20.764Z,66.40
2018-04-22T02:37:52.196Z,66.20
2018-04-22T02:38:23.627Z,66.10
2018-04-22T02:38:55.061Z,66.10
2018-04-22T02:39:26.500Z,66.00
2018-04-22T02:39:57.936Z,66.00
2018-04-22T02:40:29.451Z,65.90
2018-04-22T02:41:01.639Z,65.90
2018-04-22T02:41:33.068Z,65.90
2018-04-22T02:42:04.521Z,65.90
2018-04-22T02:42:35.955Z,65.90
2018-04-22T02:43:08.125Z,66.00
2018-04-22T02:43:39.632Z,65.90
2018-04-22T02:44:11.022Z,66.00
2018-04-22T02:44:42.462Z,66.00
2018-04-22T02:45:13.885Z,65.90
2018-04-22T02:45:45.363Z,65.90
2018-04-22T02:46:16.797Z,66.10
2018-04-22T02:46:48.228Z,66.10
2018-04-22T02:47:19.669Z,66.10
2018-04-22T02:47:51.105Z,66.20
2018-04-22T02:48:22.528Z,66.10
2018-04-22T02:48:53.973Z,66.10
2018-04-22T02:49:26.153Z,66.20
2018-04-22T02:49:57.593Z,66.30
2018-04-22T02:50:29.019Z,66.30
2018-04-22T02:51:00.517Z,66.20
2018-04-22T02:51:31.994Z,66.20
2018-04-22T02:52:04.201Z,66.20
2018-04-22T02:52:35.681Z,66.10
2018-04-22T02:53:07.117Z,66.10
2018-04-22T02:53:39.337Z,66.20
2018-04-22T02:54:10.770Z,66.10
2018-04-22T02:54:42.200Z,66.00
2018-04-22T02:55:13.634Z,66.20
2018-04-22T02:55:45.808Z,65.80
2018-04-22T02:56:17.282Z,65.80
2018-04-22T02:56:48.740Z,65.90
2018-04-22T02:57:20.168Z,65.90
2018-04-22T02:57:51.603Z,65.80
2018-04-22T02:58:23.021Z,65.70
2018-04-22T02:58:54.462Z,65.70
2018-04-22T02:59:25.889Z,65.70
2018-04-22T02:59:58.298Z,65.80
2018-04-22T03:00:29.733Z,65.90
2018-04-22T03:01:01.181Z,65.90
2018-04-22T03:01:32.642Z,65.90
2018-04-22T03:02:04.847Z,65.90
2018-04-22T03:02:36.305Z,65.90
2018-04-22T03:03:07.822Z,65.70
2018-04-22T03:03:39.990Z,65.70
2018-04-22T03:04:12.169Z,65.90
2018-04-22T03:04:43.624Z,65.90
2018-04-22T03:05:15.093Z,65.90
2018-04-22T03:05:46.530Z,65.90
2018-04-22T03:06:18.753Z,66.20
2018-04-22T03:06:50.627Z,66.10
2018-04-22T03:07:22.076Z,66.20
2018-04-22T03:07:53.504Z,66.30
2018-04-22T03:08:24.936Z,66.40
2018-04-22T03:08:56.355Z,66.50
2018-04-22T03:09:28.555Z,66.60
2018-04-22T03:10:00.013Z,66.50
2018-04-22T03:10:31.462Z,66.60
2018-04-22T03:11:02.905Z,66.50
2018-04-22T03:11:34.343Z,66.50
2018-04-22T03:12:05.849Z,66.60
2018-04-22T03:12:37.296Z,66.70
2018-04-22T03:13:08.737Z,66.80
2018-04-22T03:13:40.206Z,66.70
2018-04-22T03:14:11.664Z,66.70
2018-04-22T03:14:43.115Z,66.70
2018-04-22T03:15:15.295Z,66.80
2018-04-22T03:15:47.484Z,66.90
2018-04-22T03:16:18.945Z,66.90
2018-04-22T03:16:50.430Z,66.90
2018-04-22T03:17:22.645Z,66.80
2018-04-22T03:17:54.132Z,66.80
2018-04-22T03:18:25.584Z,66.70
2018-04-22T03:18:57.016Z,66.70
2018-04-22T03:19:28.725Z,66.80
2018-04-22T03:20:00.161Z,66.80
2018-04-22T03:20:31.600Z,66.80
2018-04-22T03:21:03.038Z,66.80
2018-04-22T03:21:34.465Z,66.80
2018-04-22T03:22:05.888Z,66.80
2018-04-22T03:22:38.086Z,66.60
2018-04-22T03:23:09.507Z,66.60
2018-04-22T03:23:41.012Z,66.60
2018-04-22T03:24:13.208Z,66.40
2018-04-22T03:24:44.638Z,66.40
2018-04-22T03:25:16.066Z,66.20
2018-04-22T03:25:47.484Z,66.10
2018-04-22T03:26:18.928Z,66.10
2018-04-22T03:26:50.352Z,66.00
2018-04-22T03:27:21.783Z,66.00
2018-04-22T03:27:53.247Z,66.10
2018-04-22T03:28:24.678Z,66.20
2018-04-22T03:28:56.139Z,66.10
2018-04-22T03:29:27.577Z,66.20
2018-04-22T03:29:59.006Z,66.30
2018-04-22T03:30:30.443Z,66.20
2018-04-22T03:31:01.886Z,66.30
2018-04-22T03:31:33.322Z,66.30
2018-04-22T03:32:04.804Z,66.30
2018-04-22T03:32:36.225Z,66.40
2018-04-22T03:33:07.671Z,66.50
2018-04-22T03:33:39.095Z,66.50
2018-04-22T03:34:10.515Z,66.50
2018-04-22T03:34:41.953Z,66.50
2018-04-22T03:35:13.368Z,66.50
2018-04-22T03:35:45.540Z,66.50
2018-04-22T03:36:17.006Z,66.50
2018-04-22T03:36:48.440Z,66.60
2018-04-22T03:37:19.882Z,66.60
2018-04-22T03:37:51.317Z,66.60
2018-04-22T03:38:22.826Z,66.70
2018-04-22T03:38:55.004Z,66.70
2018-04-22T03:39:27.172Z,66.60
2018-04-22T03:39:58.639Z,66.60
2018-04-22T03:40:30.073Z,66.60
2018-04-22T03:41:01.500Z,66.70
2018-04-22T03:41:33.685Z,66.70
2018-04-22T03:42:05.105Z,66.70
2018-04-22T03:42:36.576Z,66.70
2018-04-22T03:43:08.009Z,66.70
2018-04-22T03:43:39.493Z,66.70
2018-04-22T03:44:10.918Z,66.70
2018-04-22T03:44:42.365Z,66.60
2018-04-22T03:45:13.787Z,66.60
2018-04-22T03:45:45.247Z,66.60
2018-04-22T03:46:16.691Z,66.60
2018-04-22T03:46:48.163Z,67.10
2018-04-22T03:47:20.331Z,66.60
2018-04-22T03:47:51.784Z,66.60
2018-04-22T03:48:23.266Z,66.60
2018-04-22T03:48:54.763Z,66.60
2018-04-22T03:49:26.945Z,66.60
2018-04-22T03:49:58.371Z,66.60
2018-04-22T03:50:30.545Z,66.70
2018-04-22T03:51:01.968Z,66.70
2018-04-22T03:51:34.141Z,66.70
2018-04-22T03:52:05.597Z,66.70
2018-04-22T03:52:37.195Z,66.90
2018-04-22T03:53:08.629Z,67.00
2018-04-22T03:53:40.811Z,66.80
2018-04-22T03:54:13.008Z,66.80
2018-04-22T03:54:44.432Z,67.40
2018-04-22T03:55:15.854Z,66.90
2018-04-22T03:55:48.011Z,66.90
2018-04-22T03:56:20.189Z,66.80
2018-04-22T03:56:51.624Z,66.80
2018-04-22T03:57:23.801Z,66.70
2018-04-22T03:57:55.224Z,66.60
2018-04-22T03:58:27.401Z,66.90
2018-04-22T03:58:58.857Z,66.90
2018-04-22T03:59:30.353Z,66.90
2018-04-22T04:00:02.583Z,66.80
2018-04-22T04:00:34.046Z,66.80
2018-04-22T04:01:05.463Z,66.80
2018-04-22T04:01:36.915Z,66.70
2018-04-22T04:02:08.341Z,66.50
2018-04-22T04:02:39.781Z,66.50
2018-04-22T04:03:11.205Z,66.50
2018-04-22T04:03:42.632Z,66.60
2018-04-22T04:04:14.796Z,66.50
2018-04-22T04:04:46.296Z,66.50
2018-04-22T04:05:17.733Z,66.50
2018-04-22T04:05:49.171Z,66.30
2018-04-22T04:06:21.389Z,66.10
2018-04-22T04:06:52.816Z,66.00
2018-04-22T04:07:24.990Z,66.00
2018-04-22T04:07:56.412Z,66.00
2018-04-22T04:08:28.603Z,66.00
2018-04-22T04:09:00.036Z,66.10
2018-04-22T04:09:31.493Z,66.10
2018-04-22T04:10:03.370Z,66.10
2018-04-22T04:10:34.819Z,66.10
2018-04-22T04:11:06.249Z,66.00
2018-04-22T04:11:37.667Z,65.90
2018-04-22T04:12:09.100Z,66.00
2018-04-22T04:12:40.538Z,65.90
2018-04-22T04:13:12.235Z,65.80
2018-04-22T04:13:43.663Z,65.70
2018-04-22T04:14:15.103Z,65.80
2018-04-22T04:14:46.527Z,65.80
2018-04-22T04:15:18.029Z,65.70
2018-04-22T04:15:50.196Z,65.70
2018-04-22T04:16:22.373Z,65.80
2018-04-22T04:16:53.810Z,65.70
2018-04-22T04:17:25.277Z,65.80
2018-04-22T04:19:16.332Z,66.00
2018-04-22T04:20:00.691Z,66.20
2018-04-22T04:20:57.861Z,66.20
2018-04-22T04:21:41.442Z,66.10
2018-04-22T04:22:25.192Z,66.00
2018-04-22T04:22:57.383Z,66.00
2018-04-22T04:23:41.078Z,66.00
2018-04-22T04:25:39.343Z,66.00
2018-04-22T04:27:40.351Z,66.30
2018-04-22T04:28:11.821Z,66.40
2018-04-22T04:28:43.289Z,66.60
2018-04-22T04:29:14.730Z,66.50
2018-04-22T04:29:46.165Z,66.50
2018-04-22T04:30:17.593Z,66.50
2018-04-22T04:30:49.089Z,66.50
2018-04-22T04:31:20.483Z,66.40
2018-04-22T04:31:51.956Z,66.50
2018-04-22T04:32:23.402Z,66.40
2018-04-22T04:32:54.861Z,66.40
2018-04-22T04:33:26.289Z,66.30
2018-04-22T04:33:57.726Z,66.30
2018-04-22T04:34:29.217Z,66.20
2018-04-22T04:35:01.382Z,66.20
2018-04-22T04:35:32.822Z,66.20
2018-04-22T04:36:04.250Z,66.30
2018-04-22T04:36:35.703Z,66.30
2018-04-22T04:37:07.173Z,66.30
2018-04-22T04:37:38.613Z,66.40
2018-04-22T04:38:10.044Z,66.40
2018-04-22T04:38:41.464Z,66.40
2018-04-22T04:39:12.896Z,66.40
2018-04-22T04:39:45.078Z,66.40
2018-04-22T04:40:16.514Z,66.40
2018-04-22T04:40:47.935Z,66.30
2018-04-22T04:41:20.096Z,66.20
2018-04-22T04:41:52.270Z,66.10
2018-04-22T04:42:23.760Z,66.10
2018-04-22T04:42:55.195Z,66.00
2018-04-22T04:43:26.674Z,66.00
2018-04-22T04:43:58.098Z,65.90
2018-04-22T04:44:30.305Z,65.70
2018-04-22T04:45:02.493Z,65.70
2018-04-22T04:45:33.939Z,65.70
2018-04-22T04:46:05.376Z,65.70
2018-04-22T04:46:36.821Z,65.70
2018-04-22T04:47:08.254Z,65.80
2018-04-22T04:47:39.732Z,65.80
2018-04-22T04:48:11.181Z,65.70
2018-04-22T04:48:43.367Z,65.90
2018-04-22T04:49:14.805Z,65.80
2018-04-22T04:49:46.984Z,65.70
2018-04-22T04:50:18.415Z,65.60
2018-04-22T04:50:50.589Z,65.40
2018-04-22T04:51:22.037Z,65.50
2018-04-22T04:51:53.473Z,65.50
2018-04-22T04:52:24.895Z,65.60
2018-04-22T04:52:57.244Z,65.30
2018-04-22T04:53:28.684Z,65.30
2018-04-22T04:54:00.129Z,65.20
2018-04-22T04:54:31.604Z,64.90
2018-04-22T04:55:03.102Z,64.30
2018-04-22T04:55:34.533Z,63.70
2018-04-22T04:56:06.017Z,63.30
2018-04-22T04:56:37.504Z,62.80
2018-04-22T04:57:08.924Z,62.30
2018-04-22T04:57:40.372Z,62.00
2018-04-22T04:58:11.824Z,61.40
2018-04-22T04:58:43.251Z,60.90
2018-04-22T04:59:14.705Z,60.40
2018-04-22T04:59:46.180Z,59.70
2018-04-22T05:00:17.658Z,58.10
2018-04-22T05:00:49.079Z,57.40
2018-04-22T05:01:21.256Z,56.80
2018-04-22T05:01:53.426Z,55.90
2018-04-22T05:02:24.873Z,55.90
2018-04-22T05:02:56.322Z,55.30
2018-04-22T05:03:27.807Z,55.00
2018-04-22T05:03:59.247Z,55.00
2018-04-22T05:04:30.689Z,55.10
2018-04-22T05:05:02.925Z,55.00
2018-04-22T05:05:34.377Z,54.90
2018-04-22T05:06:05.840Z,55.00
2018-04-22T05:06:37.280Z,55.10
2018-04-22T05:07:08.703Z,55.40
2018-04-22T05:07:40.132Z,55.80
2018-04-22T05:08:11.563Z,55.60
2018-04-22T05:08:43.016Z,55.70
2018-04-22T05:09:14.455Z,55.80
2018-04-22T05:09:45.905Z,55.60
2018-04-22T05:10:17.342Z,55.60
2018-04-22T05:10:48.772Z,55.80
2018-04-22T05:11:20.220Z,56.10
2018-04-22T05:11:51.646Z,56.20
2018-04-22T05:12:23.117Z,56.40
2018-04-22T05:12:54.540Z,56.50
2018-04-22T05:13:25.976Z,56.40
2018-04-22T05:13:57.473Z,56.30
2018-04-22T05:14:28.909Z,56.30
2018-04-22T05:15:00.354Z,56.30
2018-04-22T05:15:31.801Z,56.00
2018-04-22T05:16:03.244Z,55.90
2018-04-22T05:16:34.663Z,55.40
2018-04-22T05:17:06.106Z,55.30
2018-04-22T05:17:37.536Z,55.30
2018-04-22T05:18:08.970Z,54.80
2018-04-22T05:18:40.517Z,54.50
2018-04-22T05:19:11.967Z,54.10
2018-04-22T05:19:43.408Z,53.90
2018-04-22T05:20:14.860Z,53.10
2018-04-22T05:20:46.293Z,52.20
2018-04-22T05:21:17.750Z,51.40
2018-04-22T05:21:49.174Z,50.70
2018-04-22T05:22:20.614Z,50.10
2018-04-22T05:22:52.036Z,49.90
2018-04-22T05:23:23.470Z,49.30
2018-04-22T05:23:55.642Z,48.40
2018-04-22T05:24:27.112Z,48.30
2018-04-22T05:24:58.561Z,48.00
2018-04-22T05:25:29.983Z,47.60
2018-04-22T05:26:01.422Z,47.10
2018-04-22T05:26:32.851Z,46.60
2018-04-22T05:27:04.336Z,46.40
2018-04-22T05:27:35.759Z,45.80
2018-04-22T05:28:07.187Z,45.20
2018-04-22T05:28:38.638Z,45.00
2018-04-22T05:29:10.087Z,44.80
2018-04-22T05:29:41.550Z,44.60
2018-04-22T05:30:12.988Z,44.40
2018-04-22T05:30:44.425Z,44.10
2018-04-22T05:31:15.901Z,43.80
2018-04-22T05:31:48.093Z,43.20
2018-04-22T05:32:19.526Z,43.10
2018-04-22T05:32:50.976Z,42.80
2018-04-22T05:33:22.424Z,42.50
2018-04-22T05:33:53.865Z,42.20
2018-04-22T05:34:25.317Z,41.90
2018-04-22T05:34:56.785Z,41.90
2018-04-22T05:35:28.226Z,41.50
2018-04-22T05:35:59.673Z,41.10
2018-04-22T05:36:31.172Z,40.80
2018-04-22T05:37:02.575Z,40.50
2018-04-22T05:37:33.995Z,39.90
2018-04-22T05:38:05.443Z,39.30
2018-04-22T05:38:36.867Z,39.10
2018-04-22T05:39:08.303Z,39.10
2018-04-22T05:39:39.737Z,38.80
2018-04-22T05:40:11.212Z,38.20
2018-04-22T05:40:42.642Z,38.00
2018-04-22T05:41:14.093Z,37.90
2018-04-22T05:41:45.544Z,37.80
2018-04-22T05:42:16.989Z,37.80
2018-04-22T05:42:48.434Z,37.50
2018-04-22T05:43:19.872Z,37.60
2018-04-22T05:43:51.320Z,37.10
2018-04-22T05:44:22.785Z,36.20
2018-04-22T05:44:54.961Z,36.10
2018-04-22T05:45:26.443Z,36.20
2018-04-22T05:45:57.873Z,36.50
2018-04-22T05:46:29.324Z,36.90
2018-04-22T05:47:00.773Z,36.70
2018-04-22T05:47:32.198Z,36.60
2018-04-22T05:48:03.642Z,36.80
2018-04-22T05:48:35.088Z,37.00
2018-04-22T05:49:06.533Z,36.90
2018-04-22T05:49:37.956Z,36.70
2018-04-22T05:50:09.417Z,36.20
2018-04-22T05:50:40.886Z,36.60
2018-04-22T05:51:12.333Z,37.00
2018-04-22T05:51:43.760Z,36.90
2018-04-22T05:52:15.968Z,36.90
2018-04-22T05:52:47.418Z,36.80
2018-04-22T05:53:19.005Z,37.10
2018-04-22T05:53:50.458Z,37.00
2018-04-22T05:54:21.878Z,37.10
2018-04-22T05:54:54.060Z,37.20
2018-04-22T05:55:25.515Z,37.30
2018-04-22T05:55:57.767Z,38.10
2018-04-22T05:56:29.212Z,38.20
2018-04-22T05:57:00.705Z,38.00
2018-04-22T05:57:32.144Z,38.10
2018-04-22T05:58:03.575Z,38.50
2018-04-22T05:58:35.004Z,38.90
2018-04-22T05:59:06.465Z,38.90
2018-04-22T05:59:37.896Z,39.00
2018-04-22T06:00:09.357Z,39.20
2018-04-22T06:00:40.783Z,39.00
2018-04-22T06:01:12.239Z,39.20
2018-04-22T06:01:43.667Z,39.40
2018-04-22T06:02:15.156Z,39.80
2018-04-22T06:02:46.613Z,39.90
2018-04-22T06:03:18.044Z,40.10
2018-04-22T06:03:49.480Z,40.90
2018-04-22T06:04:20.904Z,41.70
2018-04-22T06:04:52.341Z,42.40
2018-04-22T06:05:23.789Z,42.80
2018-04-22T06:05:55.234Z,43.50
2018-04-22T06:06:26.723Z,43.60
2018-04-22T06:06:58.144Z,44.10
2018-04-22T06:07:29.572Z,44.00
2018-04-22T06:08:00.991Z,44.60
2018-04-22T06:08:32.458Z,45.30
2018-04-22T06:09:03.950Z,46.00
2018-04-22T06:09:35.405Z,45.40
2018-04-22T06:10:06.850Z,45.70
2018-04-22T06:10:38.281Z,45.70
2018-04-22T06:11:10.446Z,46.90
2018-04-22T06:11:41.903Z,46.80
2018-04-22T06:12:13.345Z,47.40
2018-04-22T06:12:44.767Z,47.90
2018-04-22T06:13:16.195Z,48.10
2018-04-22T06:13:48.364Z,48.30
2018-04-22T06:14:20.527Z,47.50
2018-04-22T06:14:52.737Z,47.80
2018-04-22T06:15:24.163Z,47.80
2018-04-22T06:15:55.629Z,48.00
2018-04-22T06:16:27.096Z,48.20
2018-04-22T06:16:58.587Z,48.40
2018-04-22T06:17:30.017Z,48.90
2018-04-22T06:18:01.451Z,48.90
2018-04-22T06:18:32.876Z,49.40
2018-04-22T06:19:04.345Z,49.90
2018-04-22T06:19:35.803Z,50.20
2018-04-22T06:20:07.242Z,50.40
2018-04-22T06:20:38.679Z,50.70
2018-04-22T06:21:10.131Z,51.10
2018-04-22T06:21:41.555Z,50.20
2018-04-22T06:22:13.046Z,49.30
2018-04-22T06:22:44.497Z,49.90
2018-04-22T06:23:17.421Z,50.00
2018-04-22T06:23:48.844Z,49.90
2018-04-22T06:24:20.300Z,50.70
2018-04-22T06:24:51.720Z,50.90
2018-04-22T06:25:23.904Z,51.10
2018-04-22T06:25:55.350Z,51.20
2018-04-22T06:26:26.797Z,51.10
2018-04-22T06:26:58.240Z,50.90
2018-04-22T06:27:29.684Z,50.90
2018-04-22T06:28:01.119Z,51.50
2018-04-22T06:28:32.543Z,51.90
2018-04-22T06:29:04.728Z,51.70
2018-04-22T06:29:36.155Z,51.70
2018-04-22T06:30:07.579Z,50.60
2018-04-22T06:30:39.036Z,50.00
2018-04-22T06:31:10.493Z,50.20
2018-04-22T06:31:41.916Z,50.50
2018-04-22T06:32:13.357Z,50.40
2018-04-22T06:32:45.559Z,50.80
2018-04-22T06:33:16.989Z,50.70
2018-04-22T06:33:48.429Z,49.70
2018-04-22T06:34:19.869Z,48.80
2018-04-22T06:34:51.341Z,49.10
2018-04-22T06:35:22.803Z,49.70
2018-04-22T06:35:54.237Z,50.50
2018-04-22T06:36:25.673Z,49.50
2018-04-22T06:36:57.113Z,49.30
2018-04-22T06:37:28.532Z,49.50
2018-04-22T06:38:00.028Z,50.30
2018-04-22T06:38:32.218Z,50.50
2018-04-22T06:39:03.697Z,50.50
2018-04-22T06:39:35.901Z,51.20
2018-04-22T06:40:07.353Z,51.20
2018-04-22T06:40:38.774Z,50.50
2018-04-22T06:41:10.956Z,51.00
2018-04-22T06:41:42.389Z,51.00
2018-04-22T06:42:14.552Z,52.40
2018-04-22T06:42:45.984Z,52.50
2018-04-22T06:43:18.185Z,52.10
2018-04-22T06:43:49.623Z,52.10
2018-04-22T06:44:21.062Z,51.50
2018-04-22T06:44:52.479Z,51.60
2018-04-22T06:45:23.914Z,52.30
2018-04-22T06:45:56.084Z,52.90
2018-04-22T06:46:27.524Z,52.90
2018-04-22T06:46:59.689Z,52.60
2018-04-22T06:47:31.141Z,52.60
2018-04-22T06:48:02.588Z,53.10
2018-04-22T06:48:34.078Z,52.90
2018-04-22T06:49:05.527Z,51.70
2018-04-22T06:49:36.948Z,52.00
2018-04-22T06:50:08.388Z,52.50
2018-04-22T06:50:40.583Z,52.10
2018-04-22T06:51:12.755Z,51.70
2018-04-22T06:51:44.185Z,51.70
2018-04-22T06:52:16.351Z,51.30
2018-04-22T06:52:48.525Z,51.80
2018-04-22T06:53:20.119Z,51.80